Terminal Aerodrome Forecast
Issued by NWS Portland, OR

Home | Current Version | Previous Version | Text Only | Print | Product List | Glossary On
Versions: 1 2 3 4 5 6 7 8 9 10 11 12 13 14 15 16 17 18 19 20 21 22 23 24 25 26 27 28 29
000
FTUS46 KPQR 241840 AAA
TAFHIO
TAF AMD
KHIO 241840Z 2419/2518 00000KT 1/2SM FG VV003
     FM242000 00000KT 5SM BR SCT004 BKN008
     FM242100 VRB03KT 6SM BR SCT010 BKN025
     FM250600 VRB03KT P6SM BKN015=

USA.gov is the U.S. government's official web portal to all federal, state and local government web resources and services.